Terminal Aerodrome Forecast
Issued by NWS Duluth, MN

Home | Current Version | Previous Version | Text Only | Print | Product List | Glossary On
Versions: 1 2 3 4 5 6 7 8 9 10 11 12 13 14 15
883
FTUS43 KDLH 220536
TAFINL
TAF
KINL 220536Z 2206/2306 24007KT P6SM SCT030 BKN060
     FM221600 25012G18KT P6SM SCT060
     FM222300 20008KT P6SM SCT250
     FM230300 19007KT P6SM BKN050=

USA.gov is the U.S. government's official web portal to all federal, state and local government web resources and services.